sensor_id;sensor_type;location;lat;lon;timestamp;pressure;altitude;pressure_sealevel;temperature;humidity
18821;BME280;9539;59.332;18.034;2022-09-27T00:01:52;99760.28;;;13.02;100.00
18821;BME280;9539;59.332;18.034;2022-09-27T00:04:19;99763.25;;;13.09;100.00
18821;BME280;9539;59.332;18.034;2022-09-27T00:06:47;99757.66;;;13.12;100.00
18821;BME280;9539;59.332;18.034;2022-09-27T00:09:14;99746.06;;;13.13;100.00
18821;BME280;9539;59.332;18.034;2022-09-27T00:11:41;99727.28;;;13.14;100.00
18821;BME280;9539;59.332;18.034;2022-09-27T00:14:10;99726.31;;;13.15;100.00
18821;BME280;9539;59.332;18.034;2022-09-27T00:16:39;99736.13;;;13.25;100.00
18821;BME280;9539;59.332;18.034;2022-09-27T00:19:09;99740.31;;;12.97;100.00
18821;BME280;9539;59.332;18.034;2022-09-27T00:21:36;99743.53;;;12.91;100.00
18821;BME280;9539;59.332;18.034;2022-09-27T00:24:05;99742.63;;;13.01;100.00
18821;BME280;9539;59.332;18.034;2022-09-27T00:26:32;99739.78;;;12.72;100.00
18821;BME280;9539;59.332;18.034;2022-09-27T00:28:59;99741.66;;;12.81;100.00
18821;BME280;9539;59.332;18.034;2022-09-27T00:31:27;99745.97;;;13.03;100.00
18821;BME280;9539;59.332;18.034;2022-09-27T00:33:55;99749.47;;;13.04;100.00
18821;BME280;9539;59.332;18.034;2022-09-27T00:36:23;99756.63;;;13.03;100.00
18821;BME280;9539;59.332;18.034;2022-09-27T00:38:50;99759.50;;;12.91;100.00
18821;BME280;9539;59.332;18.034;2022-09-27T00:41:21;99758.72;;;13.00;100.00
18821;BME280;9539;59.332;18.034;2022-09-27T00:43:51;99741.88;;;12.99;100.00
18821;BME280;9539;59.332;18.034;2022-09-27T00:46:22;99751.97;;;12.96;100.00
18821;BME280;9539;59.332;18.034;2022-09-27T00:49:02;99753.25;;;13.01;100.00
18821;BME280;9539;59.332;18.034;2022-09-27T00:51:32;99753.38;;;13.00;100.00
18821;BME280;9539;59.332;18.034;2022-09-27T00:54:00;99763.63;;;13.04;100.00
18821;BME280;9539;59.332;18.034;2022-09-27T00:56:31;99754.09;;;13.02;100.00
18821;BME280;9539;59.332;18.034;2022-09-27T00:59:01;99755.31;;;12.98;100.00
18821;BME280;9539;59.332;18.034;2022-09-27T01:01:30;99761.81;;;13.05;100.00
18821;BME280;9539;59.332;18.034;2022-09-27T01:04:00;99772.56;;;13.14;100.00
18821;BME280;9539;59.332;18.034;2022-09-27T01:06:29;99770.22;;;13.00;100.00
18821;BME280;9539;59.332;18.034;2022-09-27T01:08:56;99771.72;;;12.93;100.00
18821;BME280;9539;59.332;18.034;2022-09-27T01:11:34;99775.25;;;13.03;100.00
18821;BME280;9539;59.332;18.034;2022-09-27T01:14:21;99780.06;;;13.09;100.00
18821;BME280;9539;59.332;18.034;2022-09-27T01:16:57;99771.50;;;13.06;100.00
18821;BME280;9539;59.332;18.034;2022-09-27T01:19:54;99768.94;;;13.25;100.00
18821;BME280;9539;59.332;18.034;2022-09-27T01:22:31;99773.19;;;13.28;100.00
18821;BME280;9539;59.332;18.034;2022-09-27T01:25:10;99771.72;;;12.93;100.00
18821;BME280;9539;59.332;18.034;2022-09-27T01:28:04;99772.47;;;13.05;100.00
18821;BME280;9539;59.332;18.034;2022-09-27T01:30:40;99764.06;;;13.09;100.00
18821;BME280;9539;59.332;18.034;2022-09-27T01:33:16;99769.63;;;13.17;100.00
18821;BME280;9539;59.332;18.034;2022-09-27T01:35:59;99766.28;;;13.04;100.00
18821;BME280;9539;59.332;18.034;2022-09-27T01:38:41;99767.38;;;13.13;100.00
18821;BME280;9539;59.332;18.034;2022-09-27T01:41:16;99770.66;;;13.05;100.00
18821;BME280;9539;59.332;18.034;2022-09-27T01:43:48;99768.31;;;13.12;100.00
18821;BME280;9539;59.332;18.034;2022-09-27T01:46:20;99767.53;;;13.00;100.00
18821;BME280;9539;59.332;18.034;2022-09-27T01:48:49;99760.72;;;13.07;100.00
18821;BME280;9539;59.332;18.034;2022-09-27T01:51:19;99771.31;;;12.98;100.00
18821;BME280;9539;59.332;18.034;2022-09-27T01:53:51;99775.47;;;12.91;100.00
18821;BME280;9539;59.332;18.034;2022-09-27T01:56:23;99779.25;;;12.88;100.00
18821;BME280;9539;59.332;18.034;2022-09-27T01:58:53;99779.94;;;12.90;100.00
18821;BME280;9539;59.332;18.034;2022-09-27T02:01:26;99781.63;;;12.91;100.00
18821;BME280;9539;59.332;18.034;2022-09-27T02:03:55;99779.38;;;12.87;100.00
18821;BME280;9539;59.332;18.034;2022-09-27T02:06:30;99785.09;;;12.82;100.00
18821;BME280;9539;59.332;18.034;2022-09-27T02:09:03;99777.50;;;12.77;100.00
18821;BME280;9539;59.332;18.034;2022-09-27T02:11:32;99787.78;;;12.82;100.00
18821;BME280;9539;59.332;18.034;2022-09-27T02:14:04;99786.84;;;12.72;100.00
18821;BME280;9539;59.332;18.034;2022-09-27T02:16:46;99784.25;;;12.81;100.00
18821;BME280;9539;59.332;18.034;2022-09-27T02:19:20;99786.19;;;12.79;100.00
18821;BME280;9539;59.332;18.034;2022-09-27T02:21:56;99792.16;;;12.93;100.00
18821;BME280;9539;59.332;18.034;2022-09-27T02:24:36;99792.81;;;12.85;100.00
18821;BME280;9539;59.332;18.034;2022-09-27T02:27:11;99790.34;;;12.93;100.00
18821;BME280;9539;59.332;18.034;2022-09-27T02:29:43;99790.66;;;13.00;100.00
18821;BME280;9539;59.332;18.034;2022-09-27T02:32:13;99795.69;;;12.93;100.00
18821;BME280;9539;59.332;18.034;2022-09-27T02:34:41;99794.69;;;12.94;100.00
18821;BME280;9539;59.332;18.034;2022-09-27T02:37:10;99798.22;;;12.95;100.00
18821;BME280;9539;59.332;18.034;2022-09-27T02:39:37;99800.03;;;12.94;100.00
18821;BME280;9539;59.332;18.034;2022-09-27T02:42:04;99792.50;;;12.99;100.00
18821;BME280;9539;59.332;18.034;2022-09-27T02:44:32;99795.44;;;12.75;100.00
18821;BME280;9539;59.332;18.034;2022-09-27T02:47:12;99796.53;;;12.94;100.00
18821;BME280;9539;59.332;18.034;2022-09-27T02:49:59;99789.94;;;12.98;100.00
18821;BME280;9539;59.332;18.034;2022-09-27T02:52:38;99787.63;;;12.83;100.00
18821;BME280;9539;59.332;18.034;2022-09-27T02:55:13;99782.25;;;12.95;100.00
18821;BME280;9539;59.332;18.034;2022-09-27T02:57:51;99776.25;;;13.02;100.00
18821;BME280;9539;59.332;18.034;2022-09-27T03:00:27;99796.53;;;12.94;100.00
18821;BME280;9539;59.332;18.034;2022-09-27T03:03:02;99797.28;;;13.05;100.00
18821;BME280;9539;59.332;18.034;2022-09-27T03:05:34;99794.50;;;12.86;100.00
18821;BME280;9539;59.332;18.034;2022-09-27T03:08:03;99778.72;;;12.94;100.00
18821;BME280;9539;59.332;18.034;2022-09-27T03:10:30;99797.09;;;12.97;100.00
18821;BME280;9539;59.332;18.034;2022-09-27T03:12:57;99798.13;;;12.85;100.00
18821;BME280;9539;59.332;18.034;2022-09-27T03:15:24;99797.94;;;12.98;100.00
18821;BME280;9539;59.332;18.034;2022-09-27T03:17:51;99806.31;;;12.72;100.00
18821;BME280;9539;59.332;18.034;2022-09-27T03:20:20;99799.63;;;12.99;100.00
18821;BME280;9539;59.332;18.034;2022-09-27T03:22:48;99800.06;;;13.04;100.00
18821;BME280;9539;59.332;18.034;2022-09-27T03:25:15;99800.78;;;13.06;100.00
18821;BME280;9539;59.332;18.034;2022-09-27T03:27:42;99795.34;;;13.07;100.00
18821;BME280;9539;59.332;18.034;2022-09-27T03:30:11;99796.00;;;13.00;100.00
18821;BME280;9539;59.332;18.034;2022-09-27T03:32:41;99801.13;;;13.12;100.00
18821;BME280;9539;59.332;18.034;2022-09-27T03:35:08;99796.66;;;12.92;100.00
18821;BME280;9539;59.332;18.034;2022-09-27T03:37:34;99794.09;;;13.11;100.00
18821;BME280;9539;59.332;18.034;2022-09-27T03:40:04;99806.06;;;13.17;100.00
18821;BME280;9539;59.332;18.034;2022-09-27T03:42:31;99801.66;;;12.86;100.00
18821;BME280;9539;59.332;18.034;2022-09-27T03:44:58;99804.03;;;13.09;100.00
18821;BME280;9539;59.332;18.034;2022-09-27T03:47:24;99814.63;;;13.00;100.00
18821;BME280;9539;59.332;18.034;2022-09-27T03:49:54;99819.31;;;12.87;100.00
18821;BME280;9539;59.332;18.034;2022-09-27T03:52:21;99812.56;;;12.82;100.00
18821;BME280;9539;59.332;18.034;2022-09-27T03:54:50;99813.03;;;12.88;100.00
18821;BME280;9539;59.332;18.034;2022-09-27T03:57:19;99801.44;;;12.77;100.00
18821;BME280;9539;59.332;18.034;2022-09-27T03:59:45;99809.19;;;13.01;100.00
18821;BME280;9539;59.332;18.034;2022-09-27T04:02:12;99805.44;;;12.83;100.00
18821;BME280;9539;59.332;18.034;2022-09-27T04:04:39;99800.09;;;12.83;100.00
18821;BME280;9539;59.332;18.034;2022-09-27T04:07:06;99804.38;;;12.74;100.00
18821;BME280;9539;59.332;18.034;2022-09-27T04:09:34;99806.44;;;12.92;100.00
18821;BME280;9539;59.332;18.034;2022-09-27T04:12:01;99805.22;;;12.96;100.00
18821;BME280;9539;59.332;18.034;2022-09-27T04:14:30;99805.28;;;12.85;100.00
18821;BME280;9539;59.332;18.034;2022-09-27T04:16:57;99812.06;;;12.89;100.00
18821;BME280;9539;59.332;18.034;2022-09-27T04:19:24;99806.94;;;12.76;100.00
18821;BME280;9539;59.332;18.034;2022-09-27T04:21:51;99811.84;;;12.80;100.00
18821;BME280;9539;59.332;18.034;2022-09-27T04:24:18;99815.22;;;12.62;100.00
18821;BME280;9539;59.332;18.034;2022-09-27T04:26:45;99811.31;;;12.66;100.00
18821;BME280;9539;59.332;18.034;2022-09-27T04:29:12;99819.06;;;12.69;100.00
18821;BME280;9539;59.332;18.034;2022-09-27T04:31:41;99812.38;;;12.74;100.00
18821;BME280;9539;59.332;18.034;2022-09-27T04:34:09;99816.16;;;12.40;100.00
18821;BME280;9539;59.332;18.034;2022-09-27T04:36:36;99814.28;;;12.52;100.00
18821;BME280;9539;59.332;18.034;2022-09-27T04:39:05;99825.34;;;12.68;100.00
18821;BME280;9539;59.332;18.034;2022-09-27T04:41:32;99821.56;;;12.70;100.00
18821;BME280;9539;59.332;18.034;2022-09-27T04:44:00;99818.00;;;12.60;100.00
18821;BME280;9539;59.332;18.034;2022-09-27T04:46:27;99823.66;;;12.67;100.00
18821;BME280;9539;59.332;18.034;2022-09-27T04:48:57;99817.75;;;12.63;100.00
18821;BME280;9539;59.332;18.034;2022-09-27T04:51:25;99818.72;;;12.62;100.00
18821;BME280;9539;59.332;18.034;2022-09-27T04:53:52;99824.84;;;12.74;100.00
18821;BME280;9539;59.332;18.034;2022-09-27T04:56:18;99821.09;;;12.76;100.00
18821;BME280;9539;59.332;18.034;2022-09-27T04:58:45;99823.53;;;12.68;100.00
18821;BME280;9539;59.332;18.034;2022-09-27T05:01:12;99825.56;;;12.76;100.00
18821;BME280;9539;59.332;18.034;2022-09-27T05:03:39;99824.13;;;12.93;100.00
18821;BME280;9539;59.332;18.034;2022-09-27T05:06:07;99822.53;;;12.90;100.00
18821;BME280;9539;59.332;18.034;2022-09-27T05:08:34;99838.88;;;12.76;100.00
18821;BME280;9539;59.332;18.034;2022-09-27T05:11:01;99830.63;;;13.00;100.00
18821;BME280;9539;59.332;18.034;2022-09-27T05:13:28;99834.31;;;13.08;100.00
18821;BME280;9539;59.332;18.034;2022-09-27T05:16:01;99834.56;;;13.05;100.00
18821;BME280;9539;59.332;18.034;2022-09-27T05:18:28;99829.06;;;12.76;100.00
18821;BME280;9539;59.332;18.034;2022-09-27T05:20:55;99839.56;;;12.99;100.00
18821;BME280;9539;59.332;18.034;2022-09-27T05:23:24;99834.84;;;12.81;100.00
18821;BME280;9539;59.332;18.034;2022-09-27T05:25:51;99832.44;;;12.99;100.00
18821;BME280;9539;59.332;18.034;2022-09-27T05:28:20;99828.06;;;12.98;100.00
18821;BME280;9539;59.332;18.034;2022-09-27T05:30:46;99830.72;;;12.98;100.00
18821;BME280;9539;59.332;18.034;2022-09-27T05:33:13;99832.69;;;13.17;100.00
18821;BME280;9539;59.332;18.034;2022-09-27T05:35:40;99836.94;;;13.19;100.00
18821;BME280;9539;59.332;18.034;2022-09-27T05:38:09;99833.94;;;13.34;100.00
18821;BME280;9539;59.332;18.034;2022-09-27T05:40:37;99834.94;;;13.42;100.00
18821;BME280;9539;59.332;18.034;2022-09-27T05:43:06;99834.38;;;13.39;100.00
18821;BME280;9539;59.332;18.034;2022-09-27T05:45:32;99812.91;;;13.40;100.00
18821;BME280;9539;59.332;18.034;2022-09-27T05:47:59;99840.00;;;13.45;100.00
18821;BME280;9539;59.332;18.034;2022-09-27T05:50:26;99837.09;;;13.58;100.00
18821;BME280;9539;59.332;18.034;2022-09-27T05:52:53;99826.25;;;13.80;100.00
18821;BME280;9539;59.332;18.034;2022-09-27T05:55:21;99831.44;;;13.82;100.00
18821;BME280;9539;59.332;18.034;2022-09-27T05:57:59;99815.53;;;13.61;100.00
18821;BME280;9539;59.332;18.034;2022-09-27T06:00:27;99829.31;;;13.76;100.00
18821;BME280;9539;59.332;18.034;2022-09-27T06:02:54;99840.22;;;14.13;100.00
18821;BME280;9539;59.332;18.034;2022-09-27T06:05:22;99828.88;;;14.30;100.00
18821;BME280;9539;59.332;18.034;2022-09-27T06:07:48;99832.84;;;14.45;100.00
18821;BME280;9539;59.332;18.034;2022-09-27T06:10:16;99842.69;;;14.64;100.00
18821;BME280;9539;59.332;18.034;2022-09-27T06:12:43;99848.13;;;14.53;100.00
18821;BME280;9539;59.332;18.034;2022-09-27T06:15:11;99842.50;;;14.94;100.00
18821;BME280;9539;59.332;18.034;2022-09-27T06:17:39;99842.78;;;14.91;100.00
18821;BME280;9539;59.332;18.034;2022-09-27T06:20:06;99853.19;;;14.46;100.00
18821;BME280;9539;59.332;18.034;2022-09-27T06:22:34;99855.31;;;14.52;100.00
18821;BME280;9539;59.332;18.034;2022-09-27T06:25:02;99854.84;;;14.28;100.00
18821;BME280;9539;59.332;18.034;2022-09-27T06:27:29;99856.53;;;14.29;100.00
18821;BME280;9539;59.332;18.034;2022-09-27T06:29:56;99856.03;;;14.54;100.00
18821;BME280;9539;59.332;18.034;2022-09-27T06:32:24;99860.94;;;14.68;100.00
18821;BME280;9539;59.332;18.034;2022-09-27T06:34:51;99858.28;;;14.68;100.00
18821;BME280;9539;59.332;18.034;2022-09-27T06:37:18;99865.59;;;14.57;100.00
18821;BME280;9539;59.332;18.034;2022-09-27T06:39:45;99862.34;;;14.82;100.00
18821;BME280;9539;59.332;18.034;2022-09-27T06:42:13;99860.09;;;14.77;100.00
18821;BME280;9539;59.332;18.034;2022-09-27T06:44:42;99861.06;;;14.86;100.00
18821;BME280;9539;59.332;18.034;2022-09-27T06:47:08;99863.19;;;14.73;100.00
18821;BME280;9539;59.332;18.034;2022-09-27T06:49:37;99866.81;;;15.01;100.00
18821;BME280;9539;59.332;18.034;2022-09-27T06:52:04;99867.97;;;14.69;100.00
18821;BME280;9539;59.332;18.034;2022-09-27T06:54:31;99872.66;;;15.33;100.00
18821;BME280;9539;59.332;18.034;2022-09-27T06:56:58;99876.03;;;15.54;100.00
18821;BME280;9539;59.332;18.034;2022-09-27T06:59:25;99881.56;;;15.14;100.00
18821;BME280;9539;59.332;18.034;2022-09-27T07:02:09;99881.09;;;15.85;100.00
18821;BME280;9539;59.332;18.034;2022-09-27T07:04:37;99883.88;;;16.20;100.00
18821;BME280;9539;59.332;18.034;2022-09-27T07:07:04;99879.06;;;16.42;100.00
18821;BME280;9539;59.332;18.034;2022-09-27T07:09:31;99862.88;;;16.96;100.00
18821;BME280;9539;59.332;18.034;2022-09-27T07:11:58;99875.69;;;16.85;100.00
18821;BME280;9539;59.332;18.034;2022-09-27T07:14:24;99888.13;;;16.58;100.00
18821;BME280;9539;59.332;18.034;2022-09-27T07:16:52;99879.44;;;16.47;100.00
18821;BME280;9539;59.332;18.034;2022-09-27T07:19:19;99882.78;;;16.58;100.00
18821;BME280;9539;59.332;18.034;2022-09-27T07:21:49;99878.84;;;16.35;100.00
18821;BME280;9539;59.332;18.034;2022-09-27T07:24:16;99883.81;;;16.30;100.00
18821;BME280;9539;59.332;18.034;2022-09-27T07:26:43;99885.28;;;16.42;100.00
18821;BME280;9539;59.332;18.034;2022-09-27T07:29:11;99885.19;;;16.34;100.00
18821;BME280;9539;59.332;18.034;2022-09-27T07:31:38;99897.59;;;16.08;100.00
18821;BME280;9539;59.332;18.034;2022-09-27T07:34:07;99889.03;;;16.31;100.00
18821;BME280;9539;59.332;18.034;2022-09-27T07:36:33;99898.53;;;15.89;100.00
18821;BME280;9539;59.332;18.034;2022-09-27T07:39:02;99896.34;;;16.29;100.00
18821;BME280;9539;59.332;18.034;2022-09-27T07:41:28;99898.75;;;16.05;100.00
18821;BME280;9539;59.332;18.034;2022-09-27T07:43:56;99893.63;;;16.39;100.00
18821;BME280;9539;59.332;18.034;2022-09-27T07:46:24;99890.25;;;16.10;100.00
18821;BME280;9539;59.332;18.034;2022-09-27T07:48:51;99892.56;;;16.05;100.00
18821;BME280;9539;59.332;18.034;2022-09-27T07:51:18;99897.06;;;16.04;100.00
18821;BME280;9539;59.332;18.034;2022-09-27T07:53:45;99897.34;;;16.01;100.00
18821;BME280;9539;59.332;18.034;2022-09-27T07:56:13;99900.47;;;15.50;100.00
18821;BME280;9539;59.332;18.034;2022-09-27T07:58:39;99896.28;;;15.47;100.00
18821;BME280;9539;59.332;18.034;2022-09-27T08:01:07;99897.44;;;15.35;100.00
18821;BME280;9539;59.332;18.034;2022-09-27T08:03:34;99896.81;;;15.51;100.00
18821;BME280;9539;59.332;18.034;2022-09-27T08:06:01;99897.97;;;15.39;100.00
18821;BME280;9539;59.332;18.034;2022-09-27T08:08:29;99902.59;;;15.56;100.00
18821;BME280;9539;59.332;18.034;2022-09-27T08:10:56;99912.03;;;15.41;100.00
18821;BME280;9539;59.332;18.034;2022-09-27T08:13:24;99907.69;;;15.40;100.00
18821;BME280;9539;59.332;18.034;2022-09-27T08:15:51;99913.59;;;15.24;100.00
18821;BME280;9539;59.332;18.034;2022-09-27T08:18:18;99912.44;;;15.46;100.00
18821;BME280;9539;59.332;18.034;2022-09-27T08:20:46;99917.22;;;15.52;100.00
18821;BME280;9539;59.332;18.034;2022-09-27T08:23:13;99913.19;;;15.29;100.00
18821;BME280;9539;59.332;18.034;2022-09-27T08:25:39;99917.03;;;15.16;100.00
18821;BME280;9539;59.332;18.034;2022-09-27T08:28:08;99919.66;;;15.36;100.00
18821;BME280;9539;59.332;18.034;2022-09-27T08:30:36;99905.72;;;15.42;100.00
18821;BME280;9539;59.332;18.034;2022-09-27T08:33:03;99908.09;;;15.45;100.00
18821;BME280;9539;59.332;18.034;2022-09-27T08:35:31;99910.22;;;15.32;100.00
18821;BME280;9539;59.332;18.034;2022-09-27T08:37:59;99912.63;;;15.35;100.00
18821;BME280;9539;59.332;18.034;2022-09-27T08:40:33;99909.53;;;15.20;100.00
18821;BME280;9539;59.332;18.034;2022-09-27T08:43:05;99915.16;;;15.27;100.00
18821;BME280;9539;59.332;18.034;2022-09-27T08:45:53;99919.66;;;15.36;100.00
18821;BME280;9539;59.332;18.034;2022-09-27T08:48:24;99909.38;;;15.31;100.00
18821;BME280;9539;59.332;18.034;2022-09-27T08:50:54;99918.81;;;15.26;100.00
18821;BME280;9539;59.332;18.034;2022-09-27T08:53:23;99914.31;;;15.36;100.00
18821;BME280;9539;59.332;18.034;2022-09-27T08:55:53;99919.94;;;15.42;100.00
18821;BME280;9539;59.332;18.034;2022-09-27T08:58:25;99918.06;;;15.62;100.00
18821;BME280;9539;59.332;18.034;2022-09-27T09:00:55;99915.97;;;15.56;100.00
18821;BME280;9539;59.332;18.034;2022-09-27T09:03:27;99916.97;;;15.36;100.00
18821;BME280;9539;59.332;18.034;2022-09-27T09:06:06;99918.06;;;15.43;100.00
18821;BME280;9539;59.332;18.034;2022-09-27T09:08:42;99930.63;;;15.33;100.00
18821;BME280;9539;59.332;18.034;2022-09-27T09:11:20;99936.50;;;15.36;100.00
18821;BME280;9539;59.332;18.034;2022-09-27T09:14:24;99938.09;;;15.19;100.00
18821;BME280;9539;59.332;18.034;2022-09-27T09:17:05;99941.34;;;15.13;100.00
18821;BME280;9539;59.332;18.034;2022-09-27T09:19:48;99936.16;;;15.02;100.00
18821;BME280;9539;59.332;18.034;2022-09-27T09:22:36;99942.72;;;15.27;100.00
18821;BME280;9539;59.332;18.034;2022-09-27T09:25:16;99939.66;;;14.93;100.00
18821;BME280;9539;59.332;18.034;2022-09-27T09:27:55;99932.19;;;15.26;100.00
18821;BME280;9539;59.332;18.034;2022-09-27T09:30:24;99932.34;;;14.86;100.00
18821;BME280;9539;59.332;18.034;2022-09-27T09:33:10;99928.97;;;15.03;100.00
18821;BME280;9539;59.332;18.034;2022-09-27T09:35:43;99923.75;;;15.20;100.00
18821;BME280;9539;59.332;18.034;2022-09-27T09:38:16;99936.38;;;15.47;100.00
18821;BME280;9539;59.332;18.034;2022-09-27T09:40:47;99942.56;;;15.38;100.00
18821;BME280;9539;59.332;18.034;2022-09-27T09:43:18;99935.84;;;15.34;100.00
18821;BME280;9539;59.332;18.034;2022-09-27T09:45:49;99931.81;;;15.77;100.00
18821;BME280;9539;59.332;18.034;2022-09-27T09:48:24;99933.91;;;15.83;100.00
18821;BME280;9539;59.332;18.034;2022-09-27T09:50:57;99934.59;;;15.00;100.00
18821;BME280;9539;59.332;18.034;2022-09-27T09:53:33;99939.22;;;15.07;100.00
18821;BME280;9539;59.332;18.034;2022-09-27T09:56:06;99945.81;;;14.65;100.00
18821;BME280;9539;59.332;18.034;2022-09-27T09:58:40;99940.97;;;14.39;100.00
18821;BME280;9539;59.332;18.034;2022-09-27T10:01:13;99943.16;;;14.74;100.00
18821;BME280;9539;59.332;18.034;2022-09-27T10:03:44;99950.72;;;14.10;100.00
18821;BME280;9539;59.332;18.034;2022-09-27T10:06:12;99940.22;;;14.18;100.00
18821;BME280;9539;59.332;18.034;2022-09-27T10:08:40;99941.69;;;14.42;100.00
18821;BME280;9539;59.332;18.034;2022-09-27T10:11:17;99950.06;;;14.27;100.00
18821;BME280;9539;59.332;18.034;2022-09-27T10:13:44;99953.19;;;14.02;100.00
18821;BME280;9539;59.332;18.034;2022-09-27T10:16:13;99948.41;;;13.96;100.00
18821;BME280;9539;59.332;18.034;2022-09-27T10:18:41;99946.00;;;13.63;100.00
18821;BME280;9539;59.332;18.034;2022-09-27T10:21:12;99952.66;;;13.78;100.00
18821;BME280;9539;59.332;18.034;2022-09-27T10:24:06;99939.00;;;13.92;100.00
18821;BME280;9539;59.332;18.034;2022-09-27T10:26:34;99945.44;;;14.29;100.00
18821;BME280;9539;59.332;18.034;2022-09-27T10:29:29;99943.97;;;14.16;100.00
18821;BME280;9539;59.332;18.034;2022-09-27T10:31:58;99936.97;;;14.64;100.00
18821;BME280;9539;59.332;18.034;2022-09-27T10:34:30;99935.28;;;14.63;100.00
18821;BME280;9539;59.332;18.034;2022-09-27T10:37:06;99916.59;;;14.83;100.00
18821;BME280;9539;59.332;18.034;2022-09-27T10:39:42;99939.09;;;15.09;100.00
18821;BME280;9539;59.332;18.034;2022-09-27T10:42:22;99923.41;;;15.43;100.00
18821;BME280;9539;59.332;18.034;2022-09-27T10:44:56;99928.09;;;15.41;100.00
18821;BME280;9539;59.332;18.034;2022-09-27T10:47:23;99928.94;;;15.41;100.00
18821;BME280;9539;59.332;18.034;2022-09-27T10:49:51;99927.06;;;15.51;100.00
18821;BME280;9539;59.332;18.034;2022-09-27T10:52:29;99930.19;;;15.47;100.00
18821;BME280;9539;59.332;18.034;2022-09-27T10:54:57;99923.91;;;15.09;100.00
18821;BME280;9539;59.332;18.034;2022-09-27T10:57:27;99926.69;;;15.17;100.00
18821;BME280;9539;59.332;18.034;2022-09-27T10:59:55;99927.97;;;15.13;100.00
18821;BME280;9539;59.332;18.034;2022-09-27T11:02:27;99926.13;;;15.04;100.00
18821;BME280;9539;59.332;18.034;2022-09-27T11:05:10;99930.91;;;15.30;100.00
18821;BME280;9539;59.332;18.034;2022-09-27T11:07:49;99926.53;;;15.38;100.00
18821;BME280;9539;59.332;18.034;2022-09-27T11:10:22;99923.84;;;15.48;100.00
18821;BME280;9539;59.332;18.034;2022-09-27T11:13:06;99927.25;;;15.11;100.00
18821;BME280;9539;59.332;18.034;2022-09-27T11:15:38;99927.69;;;15.36;100.00
18821;BME280;9539;59.332;18.034;2022-09-27T11:18:12;99928.94;;;15.32;100.00
18821;BME280;9539;59.332;18.034;2022-09-27T11:20:46;99921.75;;;15.42;100.00
18821;BME280;9539;59.332;18.034;2022-09-27T11:23:28;99932.00;;;15.37;100.00
18821;BME280;9539;59.332;18.034;2022-09-27T11:26:21;99933.69;;;15.38;100.00
18821;BME280;9539;59.332;18.034;2022-09-27T11:28:58;99933.25;;;15.52;100.00
18821;BME280;9539;59.332;18.034;2022-09-27T11:31:36;99931.75;;;15.40;100.00
18821;BME280;9539;59.332;18.034;2022-09-27T11:34:20;99935.78;;;15.63;100.00
18821;BME280;9539;59.332;18.034;2022-09-27T11:36:58;99931.00;;;15.67;100.00
18821;BME280;9539;59.332;18.034;2022-09-27T11:39:40;99930.34;;;15.55;100.00
18821;BME280;9539;59.332;18.034;2022-09-27T11:42:27;99947.66;;;15.97;100.00
18821;BME280;9539;59.332;18.034;2022-09-27T11:45:09;99935.22;;;16.06;100.00
18821;BME280;9539;59.332;18.034;2022-09-27T11:47:49;99924.75;;;15.85;100.00
18821;BME280;9539;59.332;18.034;2022-09-27T11:53:38;99924.69;;;16.50;100.00
18821;BME280;9539;59.332;18.034;2022-09-27T11:56:19;99926.75;;;16.38;100.00
18821;BME280;9539;59.332;18.034;2022-09-27T11:58:58;99934.44;;;16.23;100.00
18821;BME280;9539;59.332;18.034;2022-09-27T12:01:35;99938.47;;;16.55;100.00
18821;BME280;9539;59.332;18.034;2022-09-27T12:04:26;99941.59;;;16.23;100.00
18821;BME280;9539;59.332;18.034;2022-09-27T12:07:06;99935.53;;;16.48;100.00
18821;BME280;9539;59.332;18.034;2022-09-27T12:09:40;99938.47;;;16.27;100.00
18821;BME280;9539;59.332;18.034;2022-09-27T12:12:13;99940.72;;;16.32;100.00
18821;BME280;9539;59.332;18.034;2022-09-27T12:14:45;99929.81;;;16.16;100.00
18821;BME280;9539;59.332;18.034;2022-09-27T12:17:15;99939.63;;;16.25;100.00
18821;BME280;9539;59.332;18.034;2022-09-27T12:19:46;99935.78;;;16.55;100.00
18821;BME280;9539;59.332;18.034;2022-09-27T12:22:19;99937.78;;;16.53;100.00
18821;BME280;9539;59.332;18.034;2022-09-27T12:24:47;99933.09;;;16.64;100.00
18821;BME280;9539;59.332;18.034;2022-09-27T12:27:22;99937.34;;;16.30;100.00
18821;BME280;9539;59.332;18.034;2022-09-27T12:29:54;99934.94;;;16.27;100.00
18821;BME280;9539;59.332;18.034;2022-09-27T12:32:25;99934.38;;;16.06;100.00
18821;BME280;9539;59.332;18.034;2022-09-27T12:34:59;99935.88;;;16.18;100.00
18821;BME280;9539;59.332;18.034;2022-09-27T12:37:32;99932.09;;;16.38;100.00
18821;BME280;9539;59.332;18.034;2022-09-27T12:40:05;99934.22;;;16.34;100.00
18821;BME280;9539;59.332;18.034;2022-09-27T12:42:42;99936.91;;;16.07;100.00
18821;BME280;9539;59.332;18.034;2022-09-27T12:45:11;99934.28;;;16.52;100.00
18821;BME280;9539;59.332;18.034;2022-09-27T12:47:58;99937.97;;;16.42;100.00
18821;BME280;9539;59.332;18.034;2022-09-27T12:50:32;99943.94;;;16.08;100.00
18821;BME280;9539;59.332;18.034;2022-09-27T12:53:04;99930.88;;;16.50;100.00
18821;BME280;9539;59.332;18.034;2022-09-27T12:55:58;99943.47;;;16.40;100.00
18821;BME280;9539;59.332;18.034;2022-09-27T12:59:05;99933.38;;;16.34;100.00
18821;BME280;9539;59.332;18.034;2022-09-27T13:04:52;99953.41;;;16.30;100.00
18821;BME280;9539;59.332;18.034;2022-09-27T13:07:34;99951.09;;;16.72;100.00
18821;BME280;9539;59.332;18.034;2022-09-27T13:10:21;99952.16;;;16.52;100.00
18821;BME280;9539;59.332;18.034;2022-09-27T13:12:53;99946.22;;;16.58;100.00
18821;BME280;9539;59.332;18.034;2022-09-27T13:15:26;99954.94;;;16.60;100.00
18821;BME280;9539;59.332;18.034;2022-09-27T13:17:54;99949.47;;;16.79;100.00
18821;BME280;9539;59.332;18.034;2022-09-27T13:20:38;99952.91;;;16.17;100.00